sensor_id;sensor_type;location;lat;lon;timestamp;temperature;humidity
1021;DHT22;499;42.648;23.270;2023-08-30T00:01:15;20.10;55.40
1021;DHT22;499;42.648;23.270;2023-08-30T00:03:45;20.30;57.10
1021;DHT22;499;42.648;23.270;2023-08-30T00:06:18;20.20;58.60
1021;DHT22;499;42.648;23.270;2023-08-30T00:08:48;20.20;59.50
1021;DHT22;499;42.648;23.270;2023-08-30T00:11:16;20.10;51.60
1021;DHT22;499;42.648;23.270;2023-08-30T00:13:43;20.00;49.70
1021;DHT22;499;42.648;23.270;2023-08-30T00:16:16;20.10;48.60
1021;DHT22;499;42.648;23.270;2023-08-30T00:18:50;20.10;44.50
1021;DHT22;499;42.648;23.270;2023-08-30T00:21:21;20.10;35.90
1021;DHT22;499;42.648;23.270;2023-08-30T00:23:48;20.20;37.30
1021;DHT22;499;42.648;23.270;2023-08-30T00:26:15;20.10;35.20
1021;DHT22;499;42.648;23.270;2023-08-30T00:28:44;20.10;33.90
1021;DHT22;499;42.648;23.270;2023-08-30T00:31:13;20.00;36.40
1021;DHT22;499;42.648;23.270;2023-08-30T00:33:41;20.00;38.00
1021;DHT22;499;42.648;23.270;2023-08-30T00:36:09;19.90;33.40
1021;DHT22;499;42.648;23.270;2023-08-30T00:38:39;19.90;35.50
1021;DHT22;499;42.648;23.270;2023-08-30T00:41:07;19.90;37.70
1021;DHT22;499;42.648;23.270;2023-08-30T00:43:38;19.90;39.60
1021;DHT22;499;42.648;23.270;2023-08-30T00:46:10;20.00;39.10
1021;DHT22;499;42.648;23.270;2023-08-30T00:48:55;19.80;36.90
1021;DHT22;499;42.648;23.270;2023-08-30T00:51:24;19.60;39.10
1021;DHT22;499;42.648;23.270;2023-08-30T00:53:57;19.40;39.10
1021;DHT22;499;42.648;23.270;2023-08-30T00:56:33;19.40;40.80
1021;DHT22;499;42.648;23.270;2023-08-30T00:59:03;19.40;40.50
1021;DHT22;499;42.648;23.270;2023-08-30T01:01:32;19.30;38.00
1021;DHT22;499;42.648;23.270;2023-08-30T01:04:01;19.30;38.50
1021;DHT22;499;42.648;23.270;2023-08-30T01:06:29;19.50;38.30
1021;DHT22;499;42.648;23.270;2023-08-30T01:09:06;19.60;37.50
1021;DHT22;499;42.648;23.270;2023-08-30T01:11:57;19.40;37.40
1021;DHT22;499;42.648;23.270;2023-08-30T01:14:38;19.40;37.00
1021;DHT22;499;42.648;23.270;2023-08-30T01:17:08;19.40;35.80
1021;DHT22;499;42.648;23.270;2023-08-30T01:19:47;19.50;35.10
1021;DHT22;499;42.648;23.270;2023-08-30T01:22:21;19.50;34.40
1021;DHT22;499;42.648;23.270;2023-08-30T01:25:14;19.60;34.30
1021;DHT22;499;42.648;23.270;2023-08-30T01:27:47;19.60;32.70
1021;DHT22;499;42.648;23.270;2023-08-30T01:30:16;19.60;32.30
1021;DHT22;499;42.648;23.270;2023-08-30T01:32:55;19.70;32.20
1021;DHT22;499;42.648;23.270;2023-08-30T01:35:23;19.70;32.30
1021;DHT22;499;42.648;23.270;2023-08-30T01:37:57;19.70;31.80
1021;DHT22;499;42.648;23.270;2023-08-30T01:40:32;19.60;31.40
1021;DHT22;499;42.648;23.270;2023-08-30T01:43:05;19.50;30.80
1021;DHT22;499;42.648;23.270;2023-08-30T01:45:36;19.50;30.10
1021;DHT22;499;42.648;23.270;2023-08-30T01:48:26;19.60;30.40
1021;DHT22;499;42.648;23.270;2023-08-30T01:51:21;19.50;29.60
1021;DHT22;499;42.648;23.270;2023-08-30T01:53:58;19.60;29.70
1021;DHT22;499;42.648;23.270;2023-08-30T01:56:26;19.60;30.50
1021;DHT22;499;42.648;23.270;2023-08-30T01:58:55;19.60;29.70
1021;DHT22;499;42.648;23.270;2023-08-30T02:01:25;19.70;30.20
1021;DHT22;499;42.648;23.270;2023-08-30T02:03:59;19.60;30.50
1021;DHT22;499;42.648;23.270;2023-08-30T02:06:33;19.60;30.00
1021;DHT22;499;42.648;23.270;2023-08-30T02:09:08;19.40;28.80
1021;DHT22;499;42.648;23.270;2023-08-30T02:11:37;19.30;28.70
1021;DHT22;499;42.648;23.270;2023-08-30T02:14:10;19.20;28.00
1021;DHT22;499;42.648;23.270;2023-08-30T02:16:41;19.30;28.70
1021;DHT22;499;42.648;23.270;2023-08-30T02:19:11;19.40;28.60
1021;DHT22;499;42.648;23.270;2023-08-30T02:21:43;19.50;28.10
1021;DHT22;499;42.648;23.270;2023-08-30T02:24:12;19.50;28.10
1021;DHT22;499;42.648;23.270;2023-08-30T02:26:41;19.40;26.90
1021;DHT22;499;42.648;23.270;2023-08-30T02:29:35;19.50;27.30
1021;DHT22;499;42.648;23.270;2023-08-30T02:32:06;19.40;27.80
1021;DHT22;499;42.648;23.270;2023-08-30T02:34:33;19.30;28.40
1021;DHT22;499;42.648;23.270;2023-08-30T02:37:01;19.40;29.30
1021;DHT22;499;42.648;23.270;2023-08-30T02:39:28;19.30;28.30
1021;DHT22;499;42.648;23.270;2023-08-30T02:41:56;19.30;28.00
1021;DHT22;499;42.648;23.270;2023-08-30T02:44:41;19.30;28.70
1021;DHT22;499;42.648;23.270;2023-08-30T02:47:09;19.40;28.40
1021;DHT22;499;42.648;23.270;2023-08-30T02:49:37;19.40;29.30
1021;DHT22;499;42.648;23.270;2023-08-30T02:52:05;19.40;28.90
1021;DHT22;499;42.648;23.270;2023-08-30T02:54:33;19.30;29.00
1021;DHT22;499;42.648;23.270;2023-08-30T02:57:02;19.00;28.60
1021;DHT22;499;42.648;23.270;2023-08-30T02:59:31;18.90;29.10
1021;DHT22;499;42.648;23.270;2023-08-30T03:02:06;18.80;29.70
1021;DHT22;499;42.648;23.270;2023-08-30T03:04:34;18.80;29.30
1021;DHT22;499;42.648;23.270;2023-08-30T03:07:02;18.80;29.10
1021;DHT22;499;42.648;23.270;2023-08-30T03:09:31;18.70;29.10
1021;DHT22;499;42.648;23.270;2023-08-30T03:12:18;18.60;29.20
1021;DHT22;499;42.648;23.270;2023-08-30T03:14:48;18.50;29.80
1021;DHT22;499;42.648;23.270;2023-08-30T03:17:22;18.50;30.30
1021;DHT22;499;42.648;23.270;2023-08-30T03:19:51;18.50;30.00
1021;DHT22;499;42.648;23.270;2023-08-30T03:22:21;18.50;29.00
1021;DHT22;499;42.648;23.270;2023-08-30T03:24:57;18.50;29.00
1021;DHT22;499;42.648;23.270;2023-08-30T03:27:25;18.40;28.60
1021;DHT22;499;42.648;23.270;2023-08-30T03:29:54;18.50;29.00
1021;DHT22;499;42.648;23.270;2023-08-30T03:32:24;18.50;28.30
1021;DHT22;499;42.648;23.270;2023-08-30T03:34:55;18.60;28.20
1021;DHT22;499;42.648;23.270;2023-08-30T03:37:23;18.50;28.20
1021;DHT22;499;42.648;23.270;2023-08-30T03:39:55;18.50;28.40
1021;DHT22;499;42.648;23.270;2023-08-30T03:42:26;18.50;27.50
1021;DHT22;499;42.648;23.270;2023-08-30T03:44:56;18.40;27.70
1021;DHT22;499;42.648;23.270;2023-08-30T03:47:26;18.40;27.50
1021;DHT22;499;42.648;23.270;2023-08-30T03:49:54;18.40;26.90
1021;DHT22;499;42.648;23.270;2023-08-30T03:52:27;18.40;27.30
1021;DHT22;499;42.648;23.270;2023-08-30T03:55:01;18.50;27.70
1021;DHT22;499;42.648;23.270;2023-08-30T03:57:36;18.50;26.00
1021;DHT22;499;42.648;23.270;2023-08-30T04:00:12;18.70;26.20
1021;DHT22;499;42.648;23.270;2023-08-30T04:02:46;18.80;26.50
1021;DHT22;499;42.648;23.270;2023-08-30T04:05:16;18.90;26.50
1021;DHT22;499;42.648;23.270;2023-08-30T04:07:48;18.90;26.50
1021;DHT22;499;42.648;23.270;2023-08-30T04:10:20;19.00;26.80
1021;DHT22;499;42.648;23.270;2023-08-30T04:12:48;19.10;25.80
1021;DHT22;499;42.648;23.270;2023-08-30T04:15:15;19.30;25.80
1021;DHT22;499;42.648;23.270;2023-08-30T04:17:43;19.50;25.80
1021;DHT22;499;42.648;23.270;2023-08-30T04:20:12;19.80;25.10
1021;DHT22;499;42.648;23.270;2023-08-30T04:22:40;20.20;22.90
1021;DHT22;499;42.648;23.270;2023-08-30T04:25:08;20.40;22.90
1021;DHT22;499;42.648;23.270;2023-08-30T04:27:36;20.60;21.30
1021;DHT22;499;42.648;23.270;2023-08-30T04:30:06;20.80;20.80
1021;DHT22;499;42.648;23.270;2023-08-30T04:32:35;20.90;20.10
1021;DHT22;499;42.648;23.270;2023-08-30T04:35:09;20.90;20.10
1021;DHT22;499;42.648;23.270;2023-08-30T04:37:36;20.90;19.60
1021;DHT22;499;42.648;23.270;2023-08-30T04:40:07;20.90;20.10
1021;DHT22;499;42.648;23.270;2023-08-30T05:03:52;20.10;20.60
1021;DHT22;499;42.648;23.270;2023-08-30T05:06:22;20.20;21.00
1021;DHT22;499;42.648;23.270;2023-08-30T05:08:58;20.30;21.40
1021;DHT22;499;42.648;23.270;2023-08-30T05:11:36;20.20;21.80
1021;DHT22;499;42.648;23.270;2023-08-30T05:14:06;20.20;22.30
1021;DHT22;499;42.648;23.270;2023-08-30T05:16:39;20.20;22.00
1021;DHT22;499;42.648;23.270;2023-08-30T05:19:11;20.20;21.80
1021;DHT22;499;42.648;23.270;2023-08-30T05:21:43;20.30;20.90
1021;DHT22;499;42.648;23.270;2023-08-30T05:24:17;20.30;21.20
1021;DHT22;499;42.648;23.270;2023-08-30T05:26:45;20.50;21.20
1021;DHT22;499;42.648;23.270;2023-08-30T05:29:15;20.50;22.90
1021;DHT22;499;42.648;23.270;2023-08-30T05:31:44;20.50;23.20
1021;DHT22;499;42.648;23.270;2023-08-30T05:34:14;20.40;23.90
1021;DHT22;499;42.648;23.270;2023-08-30T05:36:41;20.30;24.80
1021;DHT22;499;42.648;23.270;2023-08-30T05:39:10;20.30;26.30
1021;DHT22;499;42.648;23.270;2023-08-30T05:41:39;20.40;25.10
1021;DHT22;499;42.648;23.270;2023-08-30T05:44:07;20.60;26.50
1021;DHT22;499;42.648;23.270;2023-08-30T05:46:35;20.70;25.90
1021;DHT22;499;42.648;23.270;2023-08-30T05:49:02;20.60;26.50
1021;DHT22;499;42.648;23.270;2023-08-30T05:51:33;20.70;25.70
1021;DHT22;499;42.648;23.270;2023-08-30T05:54:01;20.90;26.50
1021;DHT22;499;42.648;23.270;2023-08-30T05:56:29;21.00;25.70
1021;DHT22;499;42.648;23.270;2023-08-30T05:58:56;21.00;24.00
1021;DHT22;499;42.648;23.270;2023-08-30T06:01:24;20.90;22.80
1021;DHT22;499;42.648;23.270;2023-08-30T06:03:53;21.00;24.10
1021;DHT22;499;42.648;23.270;2023-08-30T06:06:23;21.10;23.90
1021;DHT22;499;42.648;23.270;2023-08-30T06:08:54;21.30;22.30
1021;DHT22;499;42.648;23.270;2023-08-30T06:11:25;21.30;23.40
1021;DHT22;499;42.648;23.270;2023-08-30T06:13:59;21.40;22.60
1021;DHT22;499;42.648;23.270;2023-08-30T06:16:27;21.40;21.70
1021;DHT22;499;42.648;23.270;2023-08-30T06:18:54;21.40;21.70
1021;DHT22;499;42.648;23.270;2023-08-30T06:21:25;21.20;22.40
1021;DHT22;499;42.648;23.270;2023-08-30T06:23:56;21.30;22.20
1021;DHT22;499;42.648;23.270;2023-08-30T06:26:24;21.70;22.80
1021;DHT22;499;42.648;23.270;2023-08-30T06:28:52;21.90;22.40
1021;DHT22;499;42.648;23.270;2023-08-30T06:31:20;22.20;21.80
1021;DHT22;499;42.648;23.270;2023-08-30T06:33:48;22.40;19.70
1021;DHT22;499;42.648;23.270;2023-08-30T06:36:16;22.20;19.60
1021;DHT22;499;42.648;23.270;2023-08-30T06:38:51;22.20;19.70
1021;DHT22;499;42.648;23.270;2023-08-30T06:41:32;22.10;19.60
1021;DHT22;499;42.648;23.270;2023-08-30T06:43:59;22.10;20.30
1021;DHT22;499;42.648;23.270;2023-08-30T06:46:27;22.20;20.10
1021;DHT22;499;42.648;23.270;2023-08-30T06:48:56;22.30;19.70
1021;DHT22;499;42.648;23.270;2023-08-30T06:51:29;22.40;19.80
1021;DHT22;499;42.648;23.270;2023-08-30T06:54:22;22.50;19.80
1021;DHT22;499;42.648;23.270;2023-08-30T06:57:04;22.50;19.90
1021;DHT22;499;42.648;23.270;2023-08-30T06:59:33;22.40;19.20
1021;DHT22;499;42.648;23.270;2023-08-30T07:02:04;22.40;17.60
1021;DHT22;499;42.648;23.270;2023-08-30T07:04:40;22.40;19.80
1021;DHT22;499;42.648;23.270;2023-08-30T07:07:09;22.40;20.60
1021;DHT22;499;42.648;23.270;2023-08-30T07:09:41;22.60;20.30
1021;DHT22;499;42.648;23.270;2023-08-30T07:12:13;22.60;19.90
1021;DHT22;499;42.648;23.270;2023-08-30T07:14:40;22.50;19.90
1021;DHT22;499;42.648;23.270;2023-08-30T07:17:14;22.50;19.80
1021;DHT22;499;42.648;23.270;2023-08-30T07:19:43;22.60;19.90
1021;DHT22;499;42.648;23.270;2023-08-30T07:22:12;22.40;19.80
1021;DHT22;499;42.648;23.270;2023-08-30T07:24:44;22.20;19.60
1021;DHT22;499;42.648;23.270;2023-08-30T07:27:26;22.20;19.60
1021;DHT22;499;42.648;23.270;2023-08-30T07:29:57;22.40;21.00
1021;DHT22;499;42.648;23.270;2023-08-30T07:32:27;22.40;19.80
1021;DHT22;499;42.648;23.270;2023-08-30T07:35:09;22.40;19.80
1021;DHT22;499;42.648;23.270;2023-08-30T07:38:06;22.50;19.90
1021;DHT22;499;42.648;23.270;2023-08-30T07:40:40;22.50;19.90
1021;DHT22;499;42.648;23.270;2023-08-30T07:43:31;22.40;19.80
1021;DHT22;499;42.648;23.270;2023-08-30T07:46:16;22.40;19.80
1021;DHT22;499;42.648;23.270;2023-08-30T07:49:04;22.40;19.80
1021;DHT22;499;42.648;23.270;2023-08-30T07:52:06;22.50;19.90
1021;DHT22;499;42.648;23.270;2023-08-30T07:55:03;22.60;19.90
1021;DHT22;499;42.648;23.270;2023-08-30T08:11:24;23.40;16.10
1021;DHT22;499;42.648;23.270;2023-08-30T08:13:52;23.40;16.40
1021;DHT22;499;42.648;23.270;2023-08-30T08:16:21;23.50;16.40
1021;DHT22;499;42.648;23.270;2023-08-30T08:19:01;23.70;16.90
1021;DHT22;499;42.648;23.270;2023-08-30T08:21:35;23.90;16.80
1021;DHT22;499;42.648;23.270;2023-08-30T08:24:20;23.80;16.10
1021;DHT22;499;42.648;23.270;2023-08-30T08:27:17;23.60;16.20
1021;DHT22;499;42.648;23.270;2023-08-30T08:29:46;23.50;16.30
1021;DHT22;499;42.648;23.270;2023-08-30T08:32:23;23.50;16.50
1021;DHT22;499;42.648;23.270;2023-08-30T08:35:10;23.50;17.10
1021;DHT22;499;42.648;23.270;2023-08-30T08:37:37;23.40;16.40
1021;DHT22;499;42.648;23.270;2023-08-30T08:40:10;23.40;16.40
1021;DHT22;499;42.648;23.270;2023-08-30T08:43:08;23.30;17.10
1021;DHT22;499;42.648;23.270;2023-08-30T08:46:05;23.50;16.80
1021;DHT22;499;42.648;23.270;2023-08-30T08:48:43;23.60;16.00
1021;DHT22;499;42.648;23.270;2023-08-30T08:51:10;23.50;16.40
1021;DHT22;499;42.648;23.270;2023-08-30T08:53:39;23.60;16.10
1021;DHT22;499;42.648;23.270;2023-08-30T08:56:09;23.60;16.50
1021;DHT22;499;42.648;23.270;2023-08-30T08:58:38;23.60;16.80
1021;DHT22;499;42.648;23.270;2023-08-30T09:01:06;23.60;16.50
1021;DHT22;499;42.648;23.270;2023-08-30T09:03:35;23.70;16.40
1021;DHT22;499;42.648;23.270;2023-08-30T09:06:09;23.70;16.40
1021;DHT22;499;42.648;23.270;2023-08-30T09:08:51;23.60;16.20
1021;DHT22;499;42.648;23.270;2023-08-30T09:11:43;23.50;16.40
1021;DHT22;499;42.648;23.270;2023-08-30T09:14:26;23.90;16.70
1021;DHT22;499;42.648;23.270;2023-08-30T09:16:55;23.90;15.30
1021;DHT22;499;42.648;23.270;2023-08-30T09:19:30;23.90;14.70
1021;DHT22;499;42.648;23.270;2023-08-30T09:22:15;23.90;15.10
1021;DHT22;499;42.648;23.270;2023-08-30T09:24:44;24.10;15.10
1021;DHT22;499;42.648;23.270;2023-08-30T09:27:12;24.20;13.70
1021;DHT22;499;42.648;23.270;2023-08-30T09:29:50;24.20;12.80
1021;DHT22;499;42.648;23.270;2023-08-30T09:32:41;24.20;12.80
1021;DHT22;499;42.648;23.270;2023-08-30T09:35:12;24.20;13.20
1021;DHT22;499;42.648;23.270;2023-08-30T09:37:57;24.30;13.00
1021;DHT22;499;42.648;23.270;2023-08-30T09:40:32;24.20;14.10
1021;DHT22;499;42.648;23.270;2023-08-30T09:43:03;24.20;14.70
1021;DHT22;499;42.648;23.270;2023-08-30T09:45:37;24.40;15.30
1021;DHT22;499;42.648;23.270;2023-08-30T09:48:06;24.50;14.80
1021;DHT22;499;42.648;23.270;2023-08-30T09:50:41;24.80;14.60
1021;DHT22;499;42.648;23.270;2023-08-30T09:53:33;25.30;14.60
1021;DHT22;499;42.648;23.270;2023-08-30T09:56:07;24.90;13.30
1021;DHT22;499;42.648;23.270;2023-08-30T09:58:38;24.90;13.30
1021;DHT22;499;42.648;23.270;2023-08-30T10:01:10;24.90;13.30
1021;DHT22;499;42.648;23.270;2023-08-30T10:03:40;25.00;13.30
1021;DHT22;499;42.648;23.270;2023-08-30T10:06:09;25.00;13.30
1021;DHT22;499;42.648;23.270;2023-08-30T10:08:38;24.90;13.30
1021;DHT22;499;42.648;23.270;2023-08-30T10:11:08;24.90;13.30
1021;DHT22;499;42.648;23.270;2023-08-30T10:13:39;24.80;13.20
1021;DHT22;499;42.648;23.270;2023-08-30T10:16:19;24.80;13.20
1021;DHT22;499;42.648;23.270;2023-08-30T10:25:53;25.00;13.30
1021;DHT22;499;42.648;23.270;2023-08-30T10:28:35;25.20;13.00
1021;DHT22;499;42.648;23.270;2023-08-30T10:35:00;25.10;12.40
1021;DHT22;499;42.648;23.270;2023-08-30T10:37:41;25.10;11.90
1021;DHT22;499;42.648;23.270;2023-08-30T10:40:10;25.20;11.50
1021;DHT22;499;42.648;23.270;2023-08-30T10:42:38;25.40;11.30
1021;DHT22;499;42.648;23.270;2023-08-30T10:48:37;25.60;11.00
1021;DHT22;499;42.648;23.270;2023-08-30T10:51:16;25.70;10.20
1021;DHT22;499;42.648;23.270;2023-08-30T10:53:56;25.60;10.30
1021;DHT22;499;42.648;23.270;2023-08-30T10:56:29;25.50;11.10
1021;DHT22;499;42.648;23.270;2023-08-30T10:58:57;25.40;10.40
1021;DHT22;499;42.648;23.270;2023-08-30T11:01:25;25.60;10.60
1021;DHT22;499;42.648;23.270;2023-08-30T11:03:52;25.80;10.40
1021;DHT22;499;42.648;23.270;2023-08-30T11:06:24;26.00;9.30
1021;DHT22;499;42.648;23.270;2023-08-30T11:08:56;26.20;9.00
1021;DHT22;499;42.648;23.270;2023-08-30T11:11:25;26.10;7.80
1021;DHT22;499;42.648;23.270;2023-08-30T11:13:52;26.30;8.30
1021;DHT22;499;42.648;23.270;2023-08-30T11:16:21;26.20;7.50
1021;DHT22;499;42.648;23.270;2023-08-30T11:18:49;26.30;8.20
1021;DHT22;499;42.648;23.270;2023-08-30T11:21:18;26.40;6.90
1021;DHT22;499;42.648;23.270;2023-08-30T11:23:52;26.30;6.40
1021;DHT22;499;42.648;23.270;2023-08-30T11:26:19;26.30;6.50
1021;DHT22;499;42.648;23.270;2023-08-30T11:28:47;26.40;5.60
1021;DHT22;499;42.648;23.270;2023-08-30T11:31:21;26.60;5.70
1021;DHT22;499;42.648;23.270;2023-08-30T11:33:52;26.60;5.70
1021;DHT22;499;42.648;23.270;2023-08-30T11:36:25;26.60;5.30
1021;DHT22;499;42.648;23.270;2023-08-30T11:38:58;26.80;4.70
1021;DHT22;499;42.648;23.270;2023-08-30T11:41:26;26.80;4.60
1021;DHT22;499;42.648;23.270;2023-08-30T11:43:54;26.90;5.80
1021;DHT22;499;42.648;23.270;2023-08-30T11:46:34;26.90;3.50
1021;DHT22;499;42.648;23.270;2023-08-30T11:49:21;26.90;3.40
1021;DHT22;499;42.648;23.270;2023-08-30T11:51:49;26.80;4.10
1021;DHT22;499;42.648;23.270;2023-08-30T11:54:22;26.70;4.90
1021;DHT22;499;42.648;23.270;2023-08-30T11:56:51;26.80;4.70
1021;DHT22;499;42.648;23.270;2023-08-30T11:59:20;26.90;4.20
1021;DHT22;499;42.648;23.270;2023-08-30T12:01:52;27.10;3.20
1021;DHT22;499;42.648;23.270;2023-08-30T12:04:24;27.20;3.30
1021;DHT22;499;42.648;23.270;2023-08-30T12:06:54;27.10;4.10
1021;DHT22;499;42.648;23.270;2023-08-30T12:09:30;27.20;2.60
1021;DHT22;499;42.648;23.270;2023-08-30T12:12:05;27.40;2.70
1021;DHT22;499;42.648;23.270;2023-08-30T12:14:38;27.50;2.30
1021;DHT22;499;42.648;23.270;2023-08-30T12:24:14;28.00;1.00
1021;DHT22;499;42.648;23.270;2023-08-30T12:26:59;27.90;1.00
1021;DHT22;499;42.648;23.270;2023-08-30T12:29:25;27.70;1.00
1021;DHT22;499;42.648;23.270;2023-08-30T12:31:53;27.70;1.30
1021;DHT22;499;42.648;23.270;2023-08-30T12:34:20;27.90;1.00
1021;DHT22;499;42.648;23.270;2023-08-30T12:36:58;28.10;1.00
1021;DHT22;499;42.648;23.270;2023-08-30T12:39:28;28.20;1.00
1021;DHT22;499;42.648;23.270;2023-08-30T12:41:57;28.30;1.00
1021;DHT22;499;42.648;23.270;2023-08-30T12:44:34;28.40;1.00
1021;DHT22;499;42.648;23.270;2023-08-30T12:47:07;28.60;1.00
1021;DHT22;499;42.648;23.270;2023-08-30T12:49:35;28.60;1.00
1021;DHT22;499;42.648;23.270;2023-08-30T12:52:09;28.50;1.00
1021;DHT22;499;42.648;23.270;2023-08-30T12:54:43;28.50;1.00
1021;DHT22;499;42.648;23.270;2023-08-30T12:57:13;28.30;1.00
1021;DHT22;499;42.648;23.270;2023-08-30T12:59:44;28.50;1.00
1021;DHT22;499;42.648;23.270;2023-08-30T13:02:12;28.50;1.00
1021;DHT22;499;42.648;23.270;2023-08-30T13:04:42;28.50;1.00
1021;DHT22;499;42.648;23.270;2023-08-30T13:07:13;28.60;1.00
1021;DHT22;499;42.648;23.270;2023-08-30T13:09:44;28.50;1.00
1021;DHT22;499;42.648;23.270;2023-08-30T13:12:15;28.50;1.00
1021;DHT22;499;42.648;23.270;2023-08-30T13:14:44;28.50;1.00
1021;DHT22;499;42.648;23.270;2023-08-30T13:23:08;28.10;1.00
1021;DHT22;499;42.648;23.270;2023-08-30T13:25:44;28.10;1.00
1021;DHT22;499;42.648;23.270;2023-08-30T13:28:25;28.10;1.00
1021;DHT22;499;42.648;23.270;2023-08-30T13:30:58;28.00;1.00
1021;DHT22;499;42.648;23.270;2023-08-30T13:33:28;28.00;1.00
1021;DHT22;499;42.648;23.270;2023-08-30T13:36:08;28.00;1.00
1021;DHT22;499;42.648;23.270;2023-08-30T13:38:52;28.00;1.00
1021;DHT22;499;42.648;23.270;2023-08-30T13:41:26;27.70;1.00
1021;DHT22;499;42.648;23.270;2023-08-30T13:44:05;27.60;1.00
1021;DHT22;499;42.648;23.270;2023-08-30T13:46:39;27.60;1.00
1021;DHT22;499;42.648;23.270;2023-08-30T13:49:16;27.70;1.00
1021;DHT22;499;42.648;23.270;2023-08-30T13:52:12;27.80;1.00
1021;DHT22;499;42.648;23.270;2023-08-30T13:54:39;27.80;1.00
1021;DHT22;499;42.648;23.270;2023-08-30T13:57:06;27.70;1.00
1021;DHT22;499;42.648;23.270;2023-08-30T13:59:41;27.70;1.00
1021;DHT22;499;42.648;23.270;2023-08-30T14:02:12;27.90;1.00
1021;DHT22;499;42.648;23.270;2023-08-30T14:04:46;27.80;1.00
1021;DHT22;499;42.648;23.270;2023-08-30T14:07:19;27.80;1.00
1021;DHT22;499;42.648;23.270;2023-08-30T14:09:47;27.60;1.00
1021;DHT22;499;42.648;23.270;2023-08-30T14:12:16;27.70;1.00
1021;DHT22;499;42.648;23.270;2023-08-30T14:14:45;27.70;1.00
1021;DHT22;499;42.648;23.270;2023-08-30T14:17:41;27.70;1.00
1021;DHT22;499;42.648;23.270;2023-08-30T14:20:25;27.70;1.00
1021;DHT22;499;42.648;23.270;2023-08-30T14:22:53;27.70;1.00
1021;DHT22;499;42.648;23.270;2023-08-30T14:25:23;27.70;1.00
1021;DHT22;499;42.648;23.270;2023-08-30T14:27:51;27.60;1.00
1021;DHT22;499;42.648;23.270;2023-08-30T14:30:24;27.50;1.00
1021;DHT22;499;42.648;23.270;2023-08-30T14:32:58;27.40;1.00
1021;DHT22;499;42.648;23.270;2023-08-30T14:35:52;27.20;1.00
1021;DHT22;499;42.648;23.270;2023-08-30T14:38:28;27.20;1.00
1021;DHT22;499;42.648;23.270;2023-08-30T14:41:18;27.20;1.00
1021;DHT22;499;42.648;23.270;2023-08-30T14:43:52;27.20;1.00
1021;DHT22;499;42.648;23.270;2023-08-30T14:46:21;27.20;1.00
1021;DHT22;499;42.648;23.270;2023-08-30T14:48:54;27.20;1.00
1021;DHT22;499;42.648;23.270;2023-08-30T14:51:22;27.20;1.00
1021;DHT22;499;42.648;23.270;2023-08-30T14:53:50;27.40;1.00
1021;DHT22;499;42.648;23.270;2023-08-30T14:56:45;27.50;1.00
1021;DHT22;499;42.648;23.270;2023-08-30T14:59:12;27.60;1.00
1021;DHT22;499;42.648;23.270;2023-08-30T15:01:42;27.80;1.00
1021;DHT22;499;42.648;23.270;2023-08-30T15:04:09;27.90;1.00
1021;DHT22;499;42.648;23.270;2023-08-30T15:06:36;27.70;1.00
1021;DHT22;499;42.648;23.270;2023-08-30T15:09:06;27.70;3.10
1021;DHT22;499;42.648;23.270;2023-08-30T15:11:36;27.40;4.80
1021;DHT22;499;42.648;23.270;2023-08-30T15:14:12;27.10;6.00
1021;DHT22;499;42.648;23.270;2023-08-30T15:16:45;26.60;5.90
1021;DHT22;499;42.648;23.270;2023-08-30T15:19:18;26.50;7.00
1021;DHT22;499;42.648;23.270;2023-08-30T15:22:07;26.30;7.30
1021;DHT22;499;42.648;23.270;2023-08-30T15:35:25;26.30;7.70
1021;DHT22;499;42.648;23.270;2023-08-30T15:37:52;26.10;8.10
1021;DHT22;499;42.648;23.270;2023-08-30T15:40:20;25.80;8.30
1021;DHT22;499;42.648;23.270;2023-08-30T15:42:49;25.70;8.10
1021;DHT22;499;42.648;23.270;2023-08-30T15:45:17;25.60;8.50
1021;DHT22;499;42.648;23.270;2023-08-30T15:47:44;25.60;8.60
1021;DHT22;499;42.648;23.270;2023-08-30T15:50:16;25.50;9.00
1021;DHT22;499;42.648;23.270;2023-08-30T15:52:48;25.40;9.60
1021;DHT22;499;42.648;23.270;2023-08-30T15:55:15;25.40;9.00
1021;DHT22;499;42.648;23.270;2023-08-30T15:57:42;25.50;9.20
1021;DHT22;499;42.648;23.270;2023-08-30T16:00:10;25.50;9.40
1021;DHT22;499;42.648;23.270;2023-08-30T16:02:41;25.60;9.20
1021;DHT22;499;42.648;23.270;2023-08-30T16:05:10;25.60;9.40
1021;DHT22;499;42.648;23.270;2023-08-30T16:07:38;25.70;9.10
1021;DHT22;499;42.648;23.270;2023-08-30T16:10:11;25.60;8.60
1021;DHT22;499;42.648;23.270;2023-08-30T16:12:40;25.60;7.80
1021;DHT22;499;42.648;23.270;2023-08-30T16:18:35;25.10;7.90
1021;DHT22;499;42.648;23.270;2023-08-30T16:21:04;25.00;8.50
1021;DHT22;499;42.648;23.270;2023-08-30T16:23:31;24.80;8.80
1021;DHT22;499;42.648;23.270;2023-08-30T16:26:05;24.80;9.20
1021;DHT22;499;42.648;23.270;2023-08-30T16:28:39;24.80;9.80
1021;DHT22;499;42.648;23.270;2023-08-30T16:31:10;24.70;9.70
1021;DHT22;499;42.648;23.270;2023-08-30T16:33:38;24.60;9.80
1021;DHT22;499;42.648;23.270;2023-08-30T16:36:05;24.50;10.10
1021;DHT22;499;42.648;23.270;2023-08-30T16:38:33;24.40;10.20
1021;DHT22;499;42.648;23.270;2023-08-30T16:41:03;24.30;10.40
1021;DHT22;499;42.648;23.270;2023-08-30T16:43:31;24.30;10.60
1021;DHT22;499;42.648;23.270;2023-08-30T16:45:59;24.30;10.70
1021;DHT22;499;42.648;23.270;2023-08-30T16:48:29;24.20;11.00
1021;DHT22;499;42.648;23.270;2023-08-30T16:51:00;24.20;10.90
1021;DHT22;499;42.648;23.270;2023-08-30T16:53:33;24.20;11.00
1021;DHT22;499;42.648;23.270;2023-08-30T16:56:05;24.20;11.70
1021;DHT22;499;42.648;23.270;2023-08-30T16:58:42;24.10;11.70
1021;DHT22;499;42.648;23.270;2023-08-30T17:01:15;24.00;12.70
1021;DHT22;499;42.648;23.270;2023-08-30T17:03:53;23.80;12.50
1021;DHT22;499;42.648;23.270;2023-08-30T17:06:32;23.70;12.50
1021;DHT22;499;42.648;23.270;2023-08-30T17:09:03;23.50;12.40
1021;DHT22;499;42.648;23.270;2023-08-30T17:11:33;23.50;12.30
1021;DHT22;499;42.648;23.270;2023-08-30T17:14:04;23.40;12.60
1021;DHT22;499;42.648;23.270;2023-08-30T17:17:08;23.40;12.80
1021;DHT22;499;42.648;23.270;2023-08-30T17:19:40;23.30;13.10
1021;DHT22;499;42.648;23.270;2023-08-30T17:22:08;23.10;13.40
1021;DHT22;499;42.648;23.270;2023-08-30T17:24:36;23.10;13.70
1021;DHT22;499;42.648;23.270;2023-08-30T17:27:15;23.00;13.60
1021;DHT22;499;42.648;23.270;2023-08-30T17:29:53;22.90;13.90
1021;DHT22;499;42.648;23.270;2023-08-30T17:32:44;22.80;14.30
1021;DHT22;499;42.648;23.270;2023-08-30T17:35:22;22.50;14.00
1021;DHT22;499;42.648;23.270;2023-08-30T17:38:06;22.40;14.80
1021;DHT22;499;42.648;23.270;2023-08-30T17:40:47;22.30;15.10
1021;DHT22;499;42.648;23.270;2023-08-30T17:43:23;22.30;14.90
1021;DHT22;499;42.648;23.270;2023-08-30T17:45:52;22.30;15.00
1021;DHT22;499;42.648;23.270;2023-08-30T17:48:20;22.30;14.80
1021;DHT22;499;42.648;23.270;2023-08-30T17:50:47;22.10;15.00
1021;DHT22;499;42.648;23.270;2023-08-30T17:53:14;22.00;15.40
1021;DHT22;499;42.648;23.270;2023-08-30T17:55:42;21.90;15.60
1021;DHT22;499;42.648;23.270;2023-08-30T17:58:10;21.80;15.30
1021;DHT22;499;42.648;23.270;2023-08-30T18:00:59;21.80;15.70